createdAt,value
2022-10-01T00:02:41.777Z,12.70
2022-10-01T00:05:44.769Z,12.15
2022-10-01T00:08:49.385Z,11.70
2022-10-01T00:11:52.611Z,13.02
2022-10-01T00:14:55.404Z,11.75
2022-10-01T00:17:57.366Z,11.60
2022-10-01T00:20:59.062Z,12.13
2022-10-01T00:24:05.054Z,12.13
2022-10-01T00:27:10.515Z,12.35
2022-10-01T00:30:13.201Z,12.85
2022-10-01T00:33:15.242Z,13.07
2022-10-01T00:36:16.797Z,13.73
2022-10-01T00:39:18.607Z,14.65
2022-10-01T00:42:24.018Z,15.63
2022-10-01T00:45:25.624Z,15.50
2022-10-01T00:48:30.662Z,17.27
2022-10-01T00:51:40.335Z,15.43
2022-10-01T00:54:49.586Z,15.98
2022-10-01T00:57:52.516Z,15.15
2022-10-01T01:00:56.576Z,17.87
2022-10-01T01:03:58.719Z,14.45
2022-10-01T01:07:04.455Z,14.68
2022-10-01T01:10:07.530Z,13.68
2022-10-01T01:13:09.160Z,12.73
2022-10-01T01:16:29.518Z,13.68
2022-10-01T01:19:51.718Z,14.13
2022-10-01T01:23:15.425Z,12.40
2022-10-01T01:26:42.301Z,13.43
2022-10-01T01:29:50.689Z,12.90
2022-10-01T01:33:03.316Z,12.60
2022-10-01T01:36:15.748Z,13.02
2022-10-01T01:39:20.461Z,11.88
2022-10-01T01:42:29.490Z,11.55
2022-10-01T01:45:35.864Z,11.23
2022-10-01T01:48:41.281Z,11.93
2022-10-01T01:51:51.281Z,10.88
2022-10-01T01:54:55.155Z,11.12
2022-10-01T01:57:57.888Z,10.90
2022-10-01T02:00:59.815Z,10.18
2022-10-01T02:04:07.648Z,10.38
2022-10-01T02:07:18.235Z,9.82
2022-10-01T02:10:52.059Z,11.02
2022-10-01T02:13:53.664Z,11.45
2022-10-01T02:17:01.658Z,12.02
2022-10-01T02:20:18.416Z,11.75
2022-10-01T02:23:30.315Z,11.68
2022-10-01T02:26:35.737Z,11.07
2022-10-01T02:29:39.031Z,11.85
2022-10-01T02:32:46.454Z,11.32
2022-10-01T02:38:56.215Z,11.40
2022-10-01T02:42:00.768Z,11.73
2022-10-01T02:45:04.100Z,11.18
2022-10-01T02:48:11.538Z,11.60
2022-10-01T02:54:31.364Z,11.75
2022-10-01T02:57:33.745Z,11.27
2022-10-01T03:00:36.326Z,11.02
2022-10-01T03:03:41.392Z,12.18
2022-10-01T03:06:43.029Z,10.85
2022-10-01T03:09:45.037Z,11.63
2022-10-01T03:12:47.162Z,10.40
2022-10-01T03:15:48.916Z,11.12
2022-10-01T03:18:51.163Z,11.25
2022-10-01T03:21:52.984Z,13.27
2022-10-01T03:24:54.944Z,14.10
2022-10-01T03:27:56.872Z,11.02
2022-10-01T03:31:12.463Z,10.75
2022-10-01T03:34:14.223Z,10.27
2022-10-01T03:37:17.197Z,9.13
2022-10-01T03:40:19.398Z,10.63
2022-10-01T03:43:21.064Z,12.37
2022-10-01T03:46:23.059Z,13.00
2022-10-01T03:49:24.911Z,10.40
2022-10-01T03:52:26.556Z,10.40
2022-10-01T03:55:34.524Z,10.77
2022-10-01T03:58:36.125Z,10.93
2022-10-01T04:01:39.540Z,10.52
2022-10-01T04:04:41.578Z,9.93
2022-10-01T04:07:43.830Z,9.95
2022-10-01T04:10:45.526Z,10.63
2022-10-01T04:13:47.570Z,10.27
2022-10-01T04:16:50.704Z,10.90
2022-10-01T04:19:52.411Z,10.85
2022-10-01T04:22:54.352Z,10.52
2022-10-01T04:26:00.176Z,10.57
2022-10-01T04:29:02.170Z,9.77
2022-10-01T04:32:04.174Z,10.15
2022-10-01T04:35:07.324Z,9.82
2022-10-01T04:38:17.027Z,10.25
2022-10-01T04:41:19.061Z,10.02
2022-10-01T04:44:21.032Z,10.07
2022-10-01T04:47:23.416Z,9.95
2022-10-01T04:50:26.951Z,9.43
2022-10-01T04:53:29.208Z,9.18
2022-10-01T04:56:30.890Z,9.68
2022-10-01T04:59:33.437Z,9.80
2022-10-01T05:02:35.524Z,9.68
2022-10-01T05:05:37.408Z,9.70
2022-10-01T05:08:39.288Z,10.05
2022-10-01T05:11:41.013Z,10.30
2022-10-01T05:14:48.885Z,9.98
2022-10-01T05:17:51.575Z,11.07
2022-10-01T05:20:53.285Z,10.75
2022-10-01T05:23:55.277Z,11.88
2022-10-01T05:26:57.949Z,11.15
2022-10-01T05:29:59.897Z,11.23
2022-10-01T05:33:05.439Z,10.13
2022-10-01T05:36:07.215Z,10.48
2022-10-01T05:39:09.789Z,10.25
2022-10-01T05:42:12.417Z,10.15
2022-10-01T05:45:14.085Z,10.70
2022-10-01T05:48:17.098Z,11.82
2022-10-01T05:51:19.004Z,11.88
2022-10-01T05:54:29.816Z,10.43
2022-10-01T05:57:31.529Z,10.27
2022-10-01T06:00:34.851Z,9.90
2022-10-01T06:03:36.958Z,10.20
2022-10-01T06:06:38.549Z,10.00
2022-10-01T06:09:40.348Z,10.82
2022-10-01T06:12:43.354Z,11.38
2022-10-01T06:15:46.545Z,10.85
2022-10-01T06:18:49.860Z,10.63
2022-10-01T06:21:51.943Z,10.18
2022-10-01T06:24:56.707Z,10.35
2022-10-01T06:27:59.841Z,10.30
2022-10-01T06:31:02.776Z,11.07
2022-10-01T06:34:04.418Z,10.65
2022-10-01T06:37:13.509Z,10.43
2022-10-01T06:40:15.240Z,10.60
2022-10-01T06:43:17.300Z,9.77
2022-10-01T06:46:19.065Z,10.63
2022-10-01T06:49:24.105Z,10.77
2022-10-01T06:52:44.152Z,10.07
2022-10-01T06:55:46.653Z,9.18
2022-10-01T06:58:48.368Z,8.93
2022-10-01T07:01:54.230Z,8.90
2022-10-01T07:05:01.691Z,7.97
2022-10-01T07:08:03.631Z,8.57
2022-10-01T07:11:05.661Z,7.72
2022-10-01T07:14:08.839Z,8.48
2022-10-01T07:17:16.627Z,7.55
2022-10-01T07:20:20.011Z,9.93
2022-10-01T07:23:24.377Z,10.18
2022-10-01T07:26:26.332Z,8.65
2022-10-01T07:29:28.009Z,13.88
2022-10-01T07:32:32.159Z,19.12
2022-10-01T07:35:38.003Z,13.50
2022-10-01T07:38:40.233Z,8.52
2022-10-01T07:41:42.937Z,10.07
2022-10-01T07:44:45.928Z,8.50
2022-10-01T07:47:58.575Z,12.27
2022-10-01T07:51:00.435Z,11.30
2022-10-01T07:54:03.544Z,10.00
2022-10-01T07:57:06.393Z,9.65
2022-10-01T08:00:08.681Z,8.98
2022-10-01T08:03:13.103Z,10.75
2022-10-01T08:06:15.362Z,8.20
2022-10-01T08:09:17.533Z,9.65
2022-10-01T08:12:19.705Z,8.23
2022-10-01T08:15:21.668Z,9.10
2022-10-01T08:18:24.029Z,8.80
2022-10-01T08:21:29.608Z,8.70
2022-10-01T08:24:31.674Z,8.27
2022-10-01T08:27:33.833Z,9.85
2022-10-01T08:30:37.452Z,7.95
2022-10-01T08:33:40.318Z,10.07
2022-10-01T08:36:42.323Z,9.88
2022-10-01T08:39:44.027Z,10.00
2022-10-01T08:43:00.203Z,7.20
2022-10-01T08:46:06.738Z,7.62
2022-10-01T08:49:25.872Z,10.25
2022-10-01T08:52:33.826Z,7.30
2022-10-01T08:55:37.686Z,6.28
2022-10-01T08:58:45.379Z,7.50
2022-10-01T09:01:50.816Z,6.28
2022-10-01T09:05:01.621Z,6.20
2022-10-01T09:08:07.035Z,5.25
2022-10-01T09:11:12.535Z,5.05
2022-10-01T09:14:16.936Z,4.65
2022-10-01T09:17:36.132Z,4.62
2022-10-01T09:20:46.626Z,3.83
2022-10-01T09:24:04.635Z,3.37
2022-10-01T09:27:14.278Z,3.60
2022-10-01T09:30:21.891Z,2.72
2022-10-01T09:33:31.425Z,3.10
2022-10-01T09:37:05.617Z,3.47
2022-10-01T09:40:22.241Z,3.70
2022-10-01T09:43:28.006Z,3.10
2022-10-01T09:46:29.801Z,3.08
2022-10-01T09:49:35.081Z,2.78
2022-10-01T09:52:39.872Z,2.85
2022-10-01T09:55:45.925Z,2.78
2022-10-01T09:59:00.104Z,2.95
2022-10-01T10:02:04.680Z,3.00
2022-10-01T10:05:13.547Z,2.80
2022-10-01T10:08:37.050Z,2.55
2022-10-01T10:11:42.846Z,2.20
2022-10-01T10:14:44.970Z,2.50
2022-10-01T10:17:51.590Z,2.47
2022-10-01T10:20:54.759Z,2.17
2022-10-01T10:24:00.326Z,2.42
2022-10-01T10:27:06.049Z,2.85
2022-10-01T10:30:17.265Z,2.40
2022-10-01T10:33:22.069Z,2.15
2022-10-01T10:36:29.167Z,2.58
2022-10-01T10:39:36.641Z,3.17
2022-10-01T10:42:39.009Z,2.10
2022-10-01T10:45:46.970Z,2.08
2022-10-01T10:49:00.183Z,2.28
2022-10-01T10:52:02.458Z,2.05
2022-10-01T10:55:25.326Z,2.70
2022-10-01T10:58:29.935Z,2.40
2022-10-01T11:01:32.302Z,2.28
2022-10-01T11:04:39.745Z,2.50
2022-10-01T11:07:45.074Z,2.87
2022-10-01T11:11:03.264Z,2.87
2022-10-01T11:14:13.713Z,2.60
2022-10-01T11:17:15.256Z,2.90
2022-10-01T11:20:31.194Z,2.90
2022-10-01T11:24:02.305Z,3.45
2022-10-01T11:27:16.276Z,3.20
2022-10-01T11:30:25.937Z,3.30
2022-10-01T11:33:33.574Z,3.17
2022-10-01T11:36:50.969Z,3.30
2022-10-01T11:39:59.594Z,3.70
2022-10-01T11:43:11.514Z,4.10
2022-10-01T11:46:42.718Z,4.03
2022-10-01T11:49:44.643Z,4.60
2022-10-01T11:53:09.152Z,4.28
2022-10-01T11:56:43.617Z,4.15
2022-10-01T12:00:04.333Z,4.53
2022-10-01T12:03:17.987Z,4.40
2022-10-01T12:06:26.088Z,3.75
2022-10-01T12:09:44.705Z,4.43
2022-10-01T12:13:04.314Z,3.75
2022-10-01T12:16:24.511Z,4.15
2022-10-01T12:19:36.858Z,3.83
2022-10-01T12:22:41.193Z,3.53
2022-10-01T12:26:05.992Z,3.55
2022-10-01T12:29:28.997Z,3.25
2022-10-01T12:32:54.279Z,2.78
2022-10-01T12:36:11.103Z,2.87
2022-10-01T12:39:27.092Z,3.17
2022-10-01T12:42:45.496Z,2.70
2022-10-01T12:46:02.894Z,3.22
2022-10-01T12:49:34.884Z,3.25
2022-10-01T12:53:05.194Z,2.67
2022-10-01T12:56:17.318Z,2.85
2022-10-01T12:59:34.125Z,2.97
2022-10-01T13:02:50.608Z,3.25
2022-10-01T13:06:07.756Z,3.47
2022-10-01T13:09:14.900Z,3.67
2022-10-01T13:15:35.152Z,3.78
2022-10-01T13:18:40.958Z,3.35
2022-10-01T13:21:42.860Z,3.10
2022-10-01T13:25:06.660Z,3.05
2022-10-01T13:28:24.968Z,2.65
2022-10-01T13:31:37.348Z,2.40
2022-10-01T13:34:41.922Z,2.97
2022-10-01T13:37:43.846Z,2.80
2022-10-01T13:40:57.865Z,2.40
2022-10-01T13:44:21.340Z,2.25
2022-10-01T13:47:23.760Z,2.37
2022-10-01T13:50:25.735Z,2.70
2022-10-01T13:53:28.195Z,2.33
2022-10-01T13:56:35.371Z,2.20
2022-10-01T13:59:38.992Z,2.55
2022-10-01T14:02:57.653Z,2.50
2022-10-01T14:06:02.687Z,2.35
2022-10-01T14:09:10.165Z,2.60
2022-10-01T14:12:40.764Z,2.50
2022-10-01T14:15:59.796Z,2.40
2022-10-01T14:19:02.526Z,2.50
2022-10-01T14:22:07.224Z,2.58
2022-10-01T14:25:29.997Z,2.50
2022-10-01T14:28:41.028Z,3.05
2022-10-01T14:32:12.521Z,3.25
2022-10-01T14:35:30.496Z,2.97
2022-10-01T14:38:32.529Z,3.28
2022-10-01T14:41:35.488Z,2.62
2022-10-01T14:44:40.107Z,2.90
2022-10-01T14:47:41.972Z,2.95
2022-10-01T14:50:49.559Z,3.33
2022-10-01T14:53:52.805Z,3.37
2022-10-01T14:56:55.230Z,3.05
2022-10-01T15:00:00.638Z,2.97
2022-10-01T15:03:18.235Z,3.28
2022-10-01T15:09:33.928Z,3.80
2022-10-01T15:12:40.907Z,3.17
2022-10-01T15:15:43.240Z,3.05
2022-10-01T15:18:58.732Z,3.30
2022-10-01T15:22:02.654Z,3.15
2022-10-01T15:25:04.924Z,3.15
2022-10-01T15:28:26.891Z,3.37
2022-10-01T15:31:29.171Z,3.58
2022-10-01T15:34:32.130Z,4.15
2022-10-01T15:37:36.399Z,4.18
2022-10-01T15:40:42.719Z,3.87
2022-10-01T15:43:45.487Z,4.23
2022-10-01T15:46:47.355Z,3.67
2022-10-01T15:50:10.779Z,3.42
2022-10-01T15:53:21.714Z,4.10
2022-10-01T15:56:25.117Z,3.62
2022-10-01T15:59:26.932Z,4.30
2022-10-01T16:02:31.447Z,4.45
2022-10-01T16:05:44.899Z,4.62
2022-10-01T16:09:00.191Z,4.28
2022-10-01T16:12:21.261Z,4.72
2022-10-01T16:15:31.036Z,5.03
2022-10-01T16:18:35.073Z,4.45
2022-10-01T16:22:15.856Z,4.93
2022-10-01T16:25:23.818Z,4.40
2022-10-01T16:28:33.294Z,4.72
2022-10-01T16:31:36.938Z,4.65
2022-10-01T16:34:39.042Z,6.50
2022-10-01T16:37:40.646Z,9.48
2022-10-01T16:40:44.637Z,3.15
2022-10-01T16:43:46.416Z,3.03
2022-10-01T16:46:48.580Z,4.40
2022-10-01T16:49:52.640Z,4.93
2022-10-01T16:52:56.506Z,5.55
2022-10-01T16:55:58.476Z,6.00
2022-10-01T16:59:00.474Z,7.10
2022-10-01T17:02:02.733Z,6.87
2022-10-01T17:05:05.227Z,8.93
2022-10-01T17:08:12.577Z,7.18
2022-10-01T17:14:18.915Z,7.25
2022-10-01T17:17:20.857Z,7.62
2022-10-01T17:20:24.419Z,7.90
2022-10-01T17:23:26.508Z,8.75
2022-10-01T17:26:29.219Z,8.73
2022-10-01T17:29:32.351Z,8.85
2022-10-01T17:32:36.288Z,8.25
2022-10-01T17:35:44.107Z,7.20
2022-10-01T17:38:46.150Z,7.65
2022-10-01T17:41:48.218Z,7.32
2022-10-01T17:44:49.954Z,7.85
2022-10-01T17:47:51.929Z,7.62
2022-10-01T17:51:03.623Z,8.63
2022-10-01T17:54:05.842Z,6.82
2022-10-01T17:57:10.849Z,7.37
2022-10-01T18:00:15.991Z,7.95
2022-10-01T18:03:18.309Z,7.45
2022-10-01T18:06:25.488Z,8.13
2022-10-01T18:09:27.409Z,6.10
2022-10-01T18:12:29.155Z,6.32
2022-10-01T18:15:31.257Z,6.53
2022-10-01T18:19:51.739Z,7.05
2022-10-01T18:21:59.243Z,6.90
2022-10-01T18:25:00.959Z,6.15
2022-10-01T18:28:02.885Z,5.55
2022-10-01T18:31:13.745Z,5.43
2022-10-01T18:34:24.640Z,5.20
2022-10-01T18:37:39.987Z,5.03
2022-10-01T18:40:43.704Z,10.02
2022-10-01T18:43:46.631Z,4.62
2022-10-01T18:47:02.381Z,4.68
2022-10-01T18:50:21.175Z,4.72
2022-10-01T18:53:34.782Z,5.28
2022-10-01T18:56:39.186Z,6.95
2022-10-01T19:00:08.637Z,5.55
2022-10-01T19:03:37.126Z,3.97
2022-10-01T19:06:44.669Z,4.15
2022-10-01T19:09:53.063Z,4.25
2022-10-01T19:13:06.510Z,4.80
2022-10-01T19:16:26.326Z,4.78
2022-10-01T19:19:34.953Z,4.37
2022-10-01T19:23:17.241Z,4.80
2022-10-01T19:26:44.630Z,4.32
2022-10-01T19:29:55.008Z,4.37
2022-10-01T19:33:03.197Z,3.53
2022-10-01T19:36:06.842Z,3.40
2022-10-01T19:39:16.379Z,3.10
2022-10-01T19:42:27.400Z,2.92
2022-10-01T19:45:50.856Z,3.80
2022-10-01T19:49:08.577Z,3.78
2022-10-01T19:52:13.661Z,4.12
2022-10-01T19:55:20.698Z,3.70
2022-10-01T19:58:24.666Z,3.90
2022-10-01T20:02:02.642Z,3.20
2022-10-01T20:08:33.167Z,3.65
2022-10-01T20:12:13.201Z,3.90
2022-10-01T20:15:45.468Z,3.60
2022-10-01T20:18:50.173Z,4.32
2022-10-01T20:22:26.376Z,3.95
2022-10-01T20:25:55.974Z,3.97
2022-10-01T20:29:18.412Z,3.40
2022-10-01T20:32:29.719Z,3.25
2022-10-01T20:36:08.245Z,2.72
2022-10-01T20:39:19.659Z,4.45
2022-10-01T20:42:33.830Z,3.10
2022-10-01T20:45:40.774Z,3.20
2022-10-01T20:48:47.899Z,3.20
2022-10-01T20:52:00.436Z,2.80
2022-10-01T20:55:14.264Z,3.58
2022-10-01T20:58:21.514Z,3.35
2022-10-01T21:01:26.143Z,3.33
2022-10-01T21:04:35.351Z,3.70
2022-10-01T21:07:52.151Z,4.22
2022-10-01T21:11:02.357Z,4.15
2022-10-01T21:14:26.260Z,4.50
2022-10-01T21:18:06.082Z,4.30
2022-10-01T21:21:32.132Z,5.20
2022-10-01T21:25:14.120Z,5.10
2022-10-01T21:28:42.360Z,5.30
2022-10-01T21:32:14.694Z,5.55
2022-10-01T21:35:32.333Z,6.40
2022-10-01T21:38:58.701Z,6.22
2022-10-01T21:42:19.872Z,5.87
2022-10-01T21:45:53.977Z,6.37
2022-10-01T21:48:58.468Z,6.55
2022-10-01T21:52:11.251Z,6.70
2022-10-01T21:55:44.006Z,6.80
2022-10-01T21:59:17.178Z,7.03
2022-10-01T22:02:40.144Z,6.90
2022-10-01T22:05:57.208Z,6.65
2022-10-01T22:09:16.327Z,5.90
2022-10-01T22:12:20.584Z,6.05
2022-10-01T22:15:28.590Z,6.37
2022-10-01T22:19:12.308Z,6.32
2022-10-01T22:22:48.672Z,5.60
2022-10-01T22:25:58.391Z,5.75
2022-10-01T22:29:03.020Z,6.18
2022-10-01T22:32:13.153Z,5.87
2022-10-01T22:35:20.659Z,4.97
2022-10-01T22:38:48.167Z,5.22
2022-10-01T22:41:56.588Z,4.27
2022-10-01T22:45:15.557Z,3.80
2022-10-01T22:48:36.655Z,4.00
2022-10-01T22:52:20.331Z,3.28
2022-10-01T22:55:33.021Z,3.25
2022-10-01T22:59:10.466Z,3.40
2022-10-01T23:02:14.983Z,3.40
2022-10-01T23:05:41.521Z,3.00
2022-10-01T23:08:54.852Z,3.33
2022-10-01T23:12:03.905Z,2.80
2022-10-01T23:15:40.911Z,3.00
2022-10-01T23:18:54.440Z,3.10
2022-10-01T23:22:19.711Z,3.05
2022-10-01T23:25:33.331Z,3.17
2022-10-01T23:28:53.809Z,3.20
2022-10-01T23:32:13.553Z,3.40
2022-10-01T23:35:19.750Z,3.20
2022-10-01T23:38:33.453Z,3.12
2022-10-01T23:41:41.634Z,2.45
2022-10-01T23:44:50.123Z,2.55
2022-10-01T23:48:00.095Z,2.53
2022-10-01T23:51:01.751Z,3.05
2022-10-01T23:54:27.385Z,2.08
2022-10-01T23:57:34.064Z,2.25
